Time;durP1;ratioP1;P1;durP2;ratioP2;P2;SDS_P1;SDS_P2;PMS_P1;PMS_P2;Temp;Humidity;BMP_temperature;BMP_pressure;BME280_temperature;BME280_humidity;BME280_pressure;Samples;Min_cycle;Max_cycle;Signal;HPM_P1;HPM_P2
2023/05/08 00:02:03;;;;;;;;;;;;;;;;;;7368766;19;806;-67
2023/05/08 00:04:31;;;;;;;;;;;;;;;;;;7367107;19;1346;-67
2023/05/08 00:06:59;;;;;;;;;;;;;;;;;;7370979;19;1844;-67
2023/05/08 00:09:28;;;;;;;;;;;;;;;;;;7368387;19;869;-67
2023/05/08 00:11:56;;;;;;;;;;;;;;;;;;7367736;19;853;-67
2023/05/08 00:14:24;;;;;;;;;;;;;;;;;;7365405;19;1344;-67
2023/05/08 00:16:52;;;;;;;;;;;;;;;;;;7369634;19;1808;-67
2023/05/08 00:19:20;;;;;;;;;;;;;;;;;;7366393;19;775;-67
2023/05/08 00:21:49;;;;;;;;;;;;;;;;;;7366696;19;785;-67
2023/05/08 00:24:17;;;;;;;;;;;;;;;;;;7366056;19;1207;-67
2023/05/08 00:26:45;;;;;;;;;;;;;;;;;;7367933;19;1849;-67
2023/05/08 00:29:13;;;;;;;;;;;;;;;;;;7363871;19;783;-67
2023/05/08 00:31:41;;;;;;;;;;;;;;;;;;7367172;19;863;-67
2023/05/08 00:34:10;;;;;;;;;;;;;;;;;;7369836;19;1289;-66
2023/05/08 00:36:38;;;;;;;;;;;;;;;;;;7367790;19;1832;-66
2023/05/08 00:39:06;;;;;;;;;;;;;;;;;;7367564;19;1861;-67
2023/05/08 00:41:34;;;;;;;;;;;;;;;;;;7365326;19;815;-67
2023/05/08 00:44:03;;;;;;;;;;;;;;;;;;7367367;19;1833;-67
2023/05/08 00:46:32;;;;;;;;;;;;;;;;;;7367916;19;2026;-67
2023/05/08 00:49:00;;;;;;;;;;;;;;;;;;7364463;19;866;-67
2023/05/08 00:51:28;;;;;;;;;;;;;;;;;;7366164;19;851;-67
2023/05/08 00:53:56;;;;;;;;;;;;;;;;;;7365098;19;1246;-67
2023/05/08 00:56:25;;;;;;;;;;;;;;;;;;7365762;19;2064;-67
2023/05/08 00:58:53;;;;;;;;;;;;;;;;;;7365248;19;881;-67
2023/05/08 01:01:21;;;;;;;;;;;;;;;;;;7365541;19;911;-67
2023/05/08 01:03:49;;;;;;;;;;;;;;;;;;7364395;19;1231;-67
2023/05/08 01:06:17;;;;;;;;;;;;;;;;;;7367050;19;1857;-67
2023/05/08 01:08:46;;;;;;;;;;;;;;;;;;7363542;19;739;-67
2023/05/08 01:11:14;;;;;;;;;;;;;;;;;;7227867;19;2709414;-67
2023/05/08 01:13:42;;;;;;;;;;;;;;;;;;7370786;19;1780;-67
2023/05/08 01:16:10;;;;;;;;;;;;;;;;;;7368499;19;2056;-67
2023/05/08 01:18:38;;;;;;;;;;;;;;;;;;7364840;19;1451;-67
2023/05/08 01:21:07;;;;;;;;;;;;;;;;;;7366395;19;818;-67
2023/05/08 01:23:35;;;;;;;;;;;;;;;;;;7366542;19;1361;-67
2023/05/08 01:26:03;;;;;;;;;;;;;;;;;;7369104;19;2083;-67
2023/05/08 01:28:31;;;;;;;;;;;;;;;;;;7364023;19;1846;-67
2023/05/08 01:30:59;;;;;;;;;;;;;;;;;;7366220;19;879;-67
2023/05/08 01:33:27;;;;;;;;;;;;;;;;;;7368268;19;1817;-68
2023/05/08 01:35:57;;;;;;;;;;;;;;;;;;7363134;19;1238;-67
2023/05/08 01:38:25;;;;;;;;;;;;;;;;;;7366885;19;910;-67
2023/05/08 01:40:53;;;;;;;;;;;;;;;;;;7367387;19;1784;-67
2023/05/08 01:43:21;;;;;;;;;;;;;;;;;;7367537;19;804;-67
2023/05/08 01:45:49;;;;;;;;;;;;;;;;;;7367956;19;1769;-67
2023/05/08 01:48:17;;;;;;;;;;;;;;;;;;7364710;19;1837;-67
2023/05/08 01:50:46;;;;;;;;;;;;;;;;;;7366702;19;809;-67
2023/05/08 01:53:14;;;;;;;;;;;;;;;;;;7367266;19;791;-67
2023/05/08 01:55:43;;;;;;;;;;;;;;;;;;7367185;19;1592;-67
2023/05/08 01:58:11;;;;;;;;;;;;;;;;;;7365373;19;788;-67
2023/05/08 02:00:40;;;;;;;;;;;;;;;;;;7365838;19;885;-67
2023/05/08 02:03:08;;;;;;;;;;;;;;;;;;7367059;19;854;-67
2023/05/08 02:05:36;;;;;;;;;;;;;;;;;;7365934;19;1846;-67
2023/05/08 02:08:04;;;;;;;;;;;;;;;;;;7364343;19;1846;-68
2023/05/08 02:10:32;;;;;;;;;;;;;;;;;;7366760;19;876;-68
2023/05/08 02:13:01;;;;;;;;;;;;;;;;;;7365006;19;867;-68
2023/05/08 02:15:29;;;;;;;;;;;;;;;;;;7367379;19;1767;-68
2023/05/08 02:17:57;;;;;;;;;;;;;;;;;;7365898;19;827;-68
2023/05/08 02:20:25;;;;;;;;;;;;;;;;;;7364050;19;807;-68
2023/05/08 02:22:53;;;;;;;;;;;;;;;;;;7364954;19;870;-67
2023/05/08 02:25:21;;;;;;;;;;;;;;;;;;7366328;19;1824;-67
2023/05/08 02:27:49;;;;;;;;;;;;;;;;;;7363604;19;1849;-67
2023/05/08 02:30:18;;;;;;;;;;;;;;;;;;7364562;19;832;-67
2023/05/08 02:32:47;;;;;;;;;;;;;;;;;;7365011;19;831;-67
2023/05/08 02:35:15;;;;;;;;;;;;;;;;;;7366524;19;1786;-67
2023/05/08 02:37:43;;;;;;;;;;;;;;;;;;7363470;19;782;-67
2023/05/08 02:40:12;;;;;;;;;;;;;;;;;;7363475;19;1294;-67
2023/05/08 02:42:40;;;;;;;;;;;;;;;;;;7365651;19;850;-67
2023/05/08 02:45:08;;;;;;;;;;;;;;;;;;7364747;19;1855;-67
2023/05/08 02:47:36;;;;;;;;;;;;;;;;;;7362147;19;1851;-67
2023/05/08 02:50:04;;;;;;;;;;;;;;;;;;7363808;19;773;-67
2023/05/08 02:52:33;;;;;;;;;;;;;;;;;;7363106;19;858;-67
2023/05/08 02:55:01;;;;;;;;;;;;;;;;;;7364305;19;2071;-67
2023/05/08 02:57:29;;;;;;;;;;;;;;;;;;7368170;19;1808;-67
2023/05/08 02:59:57;;;;;;;;;;;;;;;;;;7363222;19;852;-67
2023/05/08 03:02:25;;;;;;;;;;;;;;;;;;7366217;19;1759;-67
2023/05/08 03:04:54;;;;;;;;;;;;;;;;;;7363510;19;1789;-67
2023/05/08 03:07:22;;;;;;;;;;;;;;;;;;7362777;19;1842;-67
2023/05/08 03:09:50;;;;;;;;;;;;;;;;;;7363745;19;778;-67
2023/05/08 03:12:18;;;;;;;;;;;;;;;;;;7363879;19;712;-67
2023/05/08 03:14:46;;;;;;;;;;;;;;;;;;7365263;19;1757;-67
2023/05/08 03:17:14;;;;;;;;;;;;;;;;;;7364373;19;802;-67
2023/05/08 03:19:43;;;;;;;;;;;;;;;;;;7362974;19;833;-67
2023/05/08 03:22:11;;;;;;;;;;;;;;;;;;7363111;19;838;-67
2023/05/08 03:24:39;;;;;;;;;;;;;;;;;;7365809;19;1792;-67
2023/05/08 03:27:07;;;;;;;;;;;;;;;;;;7362461;19;1857;-67
2023/05/08 03:29:35;;;;;;;;;;;;;;;;;;7362242;19;890;-67
2023/05/08 03:32:04;;;;;;;;;;;;;;;;;;7363366;19;1813;-67
2023/05/08 03:34:32;;;;;;;;;;;;;;;;;;7361177;19;1348;-67
2023/05/08 03:37:00;;;;;;;;;;;;;;;;;;7362965;19;855;-67
2023/05/08 03:39:28;;;;;;;;;;;;;;;;;;7361766;19;841;-67
2023/05/08 03:41:56;;;;;;;;;;;;;;;;;;7362362;19;1805;-67
2023/05/08 03:44:25;;;;;;;;;;;;;;;;;;7360746;19;1375;-67
2023/05/08 03:46:53;;;;;;;;;;;;;;;;;;7362276;19;1845;-67
2023/05/08 03:49:22;;;;;;;;;;;;;;;;;;7362951;19;828;-67
2023/05/08 03:51:50;;;;;;;;;;;;;;;;;;7362467;19;1811;-67
2023/05/08 03:54:18;;;;;;;;;;;;;;;;;;7364685;19;1846;-67
2023/05/08 03:56:46;;;;;;;;;;;;;;;;;;7366263;19;1745;-67
2023/05/08 03:59:15;;;;;;;;;;;;;;;;;;7363692;19;2092;-67
2023/05/08 04:01:44;;;;;;;;;;;;;;;;;;7365531;19;2018;-67
2023/05/08 04:04:14;;;;;;;;;;;;;;;;;;7367321;19;1845;-67
2023/05/08 04:06:42;;;;;;;;;;;;;;;;;;7369750;19;853;-67
2023/05/08 04:09:11;;;;;;;;;;;;;;;;;;7365711;19;1848;-67
2023/05/08 04:11:39;;;;;;;;;;;;;;;;;;7368138;19;882;-67
2023/05/08 04:14:07;;;;;;;;;;;;;;;;;;7371287;19;1771;-67
2023/05/08 04:16:36;;;;;;;;;;;;;;;;;;7368252;19;831;-67
2023/05/08 04:19:06;;;;;;;;;;;;;;;;;;7367308;19;879;-67
2023/05/08 04:21:34;;;;;;;;;;;;;;;;;;7367754;19;802;-67
2023/05/08 04:24:02;;;;;;;;;;;;;;;;;;7370890;19;2064;-67
2023/05/08 04:26:30;;;;;;;;;;;;;;;;;;7368515;19;2044;-67
2023/05/08 04:29:00;;;;;;;;;;;;;;;;;;7366118;19;1850;-67
2023/05/08 04:31:28;;;;;;;;;;;;;;;;;;7367227;19;810;-67
2023/05/08 04:33:57;;;;;;;;;;;;;;;;;;7370612;19;1811;-67
2023/05/08 04:36:28;;;;;;;;;;;;;;;;;;7372477;19;1865;-67
2023/05/08 04:38:56;;;;;;;;;;;;;;;;;;7367170;19;943;-67
2023/05/08 04:41:25;;;;;;;;;;;;;;;;;;7367553;19;858;-67
2023/05/08 04:43:53;;;;;;;;;;;;;;;;;;7371970;19;1802;-67
2023/05/08 04:46:23;;;;;;;;;;;;;;;;;;7369054;19;808;-67
2023/05/08 04:48:51;;;;;;;;;;;;;;;;;;7365204;19;1861;-67
2023/05/08 04:51:19;;;;;;;;;;;;;;;;;;7371844;19;1777;-66
2023/05/08 04:53:47;;;;;;;;;;;;;;;;;;7370107;19;1792;-67
2023/05/08 04:56:16;;;;;;;;;;;;;;;;;;7368757;19;1500;-67
2023/05/08 04:58:44;;;;;;;;;;;;;;;;;;7366779;19;918;-67
2023/05/08 05:01:12;;;;;;;;;;;;;;;;;;7367106;19;790;-67
2023/05/08 05:03:41;;;;;;;;;;;;;;;;;;7369470;19;1597;-67
2023/05/08 05:06:09;;;;;;;;;;;;;;;;;;7370818;19;1606;-66
2023/05/08 05:08:37;;;;;;;;;;;;;;;;;;7365413;19;1834;-66
2023/05/08 05:11:05;;;;;;;;;;;;;;;;;;7371792;19;1577;-66
2023/05/08 05:13:33;;;;;;;;;;;;;;;;;;7369446;19;1681;-66
2023/05/08 05:16:01;;;;;;;;;;;;;;;;;;7364001;19;811;-66
2023/05/08 05:18:30;;;;;;;;;;;;;;;;;;7365729;19;810;-67
2023/05/08 05:20:58;;;;;;;;;;;;;;;;;;7371580;19;851;-66
2023/05/08 05:23:27;;;;;;;;;;;;;;;;;;7369139;19;1832;-66
2023/05/08 05:25:55;;;;;;;;;;;;;;;;;;7366377;19;1320;-67
2023/05/08 05:28:23;;;;;;;;;;;;;;;;;;7366996;19;1872;-67
2023/05/08 05:30:51;;;;;;;;;;;;;;;;;;7369323;19;1678;-66
2023/05/08 05:33:19;;;;;;;;;;;;;;;;;;7368735;19;1801;-67
2023/05/08 05:35:48;;;;;;;;;;;;;;;;;;7364147;19;1335;-66
2023/05/08 05:38:16;;;;;;;;;;;;;;;;;;7366688;19;827;-67
2023/05/08 05:40:44;;;;;;;;;;;;;;;;;;7368433;19;854;-67
2023/05/08 05:43:12;;;;;;;;;;;;;;;;;;7370804;19;2253;-66
2023/05/08 05:45:41;;;;;;;;;;;;;;;;;;7363438;19;1301;-67
2023/05/08 05:48:09;;;;;;;;;;;;;;;;;;7366349;19;1861;-66
2023/05/08 05:50:38;;;;;;;;;;;;;;;;;;7368149;19;1838;-66
2023/05/08 05:53:06;;;;;;;;;;;;;;;;;;7369567;19;1803;-66
2023/05/08 05:55:34;;;;;;;;;;;;;;;;;;7367325;19;1835;-66
2023/05/08 05:58:03;;;;;;;;;;;;;;;;;;7364487;19;851;-66
2023/05/08 06:00:31;;;;;;;;;;;;;;;;;;7366561;19;955;-66
2023/05/08 06:03:01;;;;;;;;;;;;;;;;;;7366524;19;786;-66
2023/05/08 06:05:30;;;;;;;;;;;;;;;;;;7365582;19;1271;-66
2023/05/08 06:07:59;;;;;;;;;;;;;;;;;;7365570;19;1842;-66
2023/05/08 06:10:28;;;;;;;;;;;;;;;;;;7367075;19;829;-66
2023/05/08 06:12:56;;;;;;;;;;;;;;;;;;7366218;19;847;-66
2023/05/08 06:15:24;;;;;;;;;;;;;;;;;;7363909;19;1752;-67
2023/05/08 06:17:53;;;;;;;;;;;;;;;;;;7371297;19;1716;-67
2023/05/08 06:20:21;;;;;;;;;;;;;;;;;;7369466;19;850;-66
2023/05/08 06:22:49;;;;;;;;;;;;;;;;;;7370234;19;1842;-66
2023/05/08 06:25:18;;;;;;;;;;;;;;;;;;7366933;19;1337;-66
2023/05/08 06:27:46;;;;;;;;;;;;;;;;;;7366934;19;1869;-67
2023/05/08 06:30:14;;;;;;;;;;;;;;;;;;7367065;19;804;-66
2023/05/08 06:32:42;;;;;;;;;;;;;;;;;;7369738;19;1798;-67
2023/05/08 06:35:10;;;;;;;;;;;;;;;;;;7366818;19;1219;-67
2023/05/08 06:37:39;;;;;;;;;;;;;;;;;;7368235;19;727;-67
2023/05/08 06:40:07;;;;;;;;;;;;;;;;;;7367537;19;814;-67
2023/05/08 06:42:35;;;;;;;;;;;;;;;;;;7368613;19;879;-67
2023/05/08 06:45:03;;;;;;;;;;;;;;;;;;7368343;19;1838;-67
2023/05/08 06:47:31;;;;;;;;;;;;;;;;;;7371083;19;1795;-66
2023/05/08 06:50:00;;;;;;;;;;;;;;;;;;7367202;19;2151;-67
2023/05/08 06:52:28;;;;;;;;;;;;;;;;;;7367194;19;2039;-67
2023/05/08 06:54:56;;;;;;;;;;;;;;;;;;7363527;19;1253;-67
2023/05/08 06:57:25;;;;;;;;;;;;;;;;;;7365745;19;802;-67
2023/05/08 06:59:54;;;;;;;;;;;;;;;;;;7364703;19;882;-67
2023/05/08 07:02:22;;;;;;;;;;;;;;;;;;7366317;19;891;-66
2023/05/08 07:04:50;;;;;;;;;;;;;;;;;;7364492;19;1807;-66
2023/05/08 07:07:18;;;;;;;;;;;;;;;;;;7364802;19;1872;-66
2023/05/08 07:09:46;;;;;;;;;;;;;;;;;;7361124;19;1837;-67
2023/05/08 07:12:15;;;;;;;;;;;;;;;;;;7365533;19;726;-66
2023/05/08 07:14:43;;;;;;;;;;;;;;;;;;7363421;19;1344;-66
2023/05/08 07:17:11;;;;;;;;;;;;;;;;;;7368175;19;1605;-66
2023/05/08 07:19:40;;;;;;;;;;;;;;;;;;7363551;19;790;-66
2023/05/08 07:22:08;;;;;;;;;;;;;;;;;;7364999;19;1822;-66
2023/05/08 07:24:36;;;;;;;;;;;;;;;;;;7363906;19;1272;-66
2023/05/08 07:27:05;;;;;;;;;;;;;;;;;;7364597;19;818;-66
2023/05/08 07:29:34;;;;;;;;;;;;;;;;;;7361990;19;1845;-66
2023/05/08 07:32:02;;;;;;;;;;;;;;;;;;7364148;19;867;-66
2023/05/08 07:34:30;;;;;;;;;;;;;;;;;;7362889;19;1331;-66
2023/05/08 07:36:59;;;;;;;;;;;;;;;;;;7364481;19;826;-66
2023/05/08 07:39:27;;;;;;;;;;;;;;;;;;7366648;19;849;-67
2023/05/08 07:41:55;;;;;;;;;;;;;;;;;;7370859;19;771;-65
2023/05/08 07:44:23;;;;;;;;;;;;;;;;;;7372368;19;1765;-66
2023/05/08 07:46:51;;;;;;;;;;;;;;;;;;7373032;19;2181;-66
2023/05/08 07:49:19;;;;;;;;;;;;;;;;;;7368567;19;1837;-66
2023/05/08 07:51:48;;;;;;;;;;;;;;;;;;7370488;19;810;-66
2023/05/08 07:54:16;;;;;;;;;;;;;;;;;;7369516;19;1282;-66
2023/05/08 07:56:44;;;;;;;;;;;;;;;;;;7370002;19;800;-66
2023/05/08 07:59:12;;;;;;;;;;;;;;;;;;7370238;19;1765;-66
2023/05/08 08:01:42;;;;;;;;;;;;;;;;;;7373339;19;1754;-66
2023/05/08 08:04:10;;;;;;;;;;;;;;;;;;7369789;19;1360;-65
2023/05/08 08:06:38;;;;;;;;;;;;;;;;;;7371738;19;1774;-67
2023/05/08 08:09:06;;;;;;;;;;;;;;;;;;7366651;19;1816;-66
2023/05/08 08:11:34;;;;;;;;;;;;;;;;;;7373303;19;1780;-65
2023/05/08 08:14:02;;;;;;;;;;;;;;;;;;7370924;19;1763;-65
2023/05/08 08:16:31;;;;;;;;;;;;;;;;;;7369961;19;839;-65
2023/05/08 08:18:59;;;;;;;;;;;;;;;;;;7368737;19;821;-64
2023/05/08 08:21:27;;;;;;;;;;;;;;;;;;7370005;19;805;-65
2023/05/08 08:23:55;;;;;;;;;;;;;;;;;;7372510;19;1339;-65
2023/05/08 08:26:24;;;;;;;;;;;;;;;;;;7369109;19;833;-65
2023/05/08 08:28:52;;;;;;;;;;;;;;;;;;7371767;19;1916;-65
2023/05/08 08:31:20;;;;;;;;;;;;;;;;;;7368676;19;806;-62
2023/05/08 08:33:48;;;;;;;;;;;;;;;;;;7373767;19;1821;-63
2023/05/08 08:36:17;;;;;;;;;;;;;;;;;;7369170;19;802;-64
2023/05/08 08:38:45;;;;;;;;;;;;;;;;;;7368884;19;839;-65
2023/05/08 08:41:13;;;;;;;;;;;;;;;;;;7369764;19;2052;-64
2023/05/08 08:43:42;;;;;;;;;;;;;;;;;;7372577;19;1858;-65
2023/05/08 08:46:10;;;;;;;;;;;;;;;;;;7370033;19;2035;-64
2023/05/08 08:48:38;;;;;;;;;;;;;;;;;;7369274;19;1872;-65
2023/05/08 08:51:06;;;;;;;;;;;;;;;;;;7368134;19;791;-64
2023/05/08 08:53:34;;;;;;;;;;;;;;;;;;7369367;19;879;-64
2023/05/08 08:56:02;;;;;;;;;;;;;;;;;;7366704;19;1392;-64
2023/05/08 08:58:31;;;;;;;;;;;;;;;;;;7370643;19;1635;-64
2023/05/08 09:00:59;;;;;;;;;;;;;;;;;;7368616;19;821;-64
2023/05/08 09:03:27;;;;;;;;;;;;;;;;;;7368768;19;786;-62
2023/05/08 09:05:55;;;;;;;;;;;;;;;;;;7366231;19;1477;-65
2023/05/08 09:08:24;;;;;;;;;;;;;;;;;;7367936;19;840;-64
2023/05/08 09:10:52;;;;;;;;;;;;;;;;;;7365374;19;1842;-65
2023/05/08 09:13:20;;;;;;;;;;;;;;;;;;7369222;19;826;-64
2023/05/08 09:15:49;;;;;;;;;;;;;;;;;;7370594;19;1468;-65
2023/05/08 09:18:18;;;;;;;;;;;;;;;;;;7369328;19;873;-64
2023/05/08 09:20:46;;;;;;;;;;;;;;;;;;7367576;19;877;-65
2023/05/08 09:23:16;;;;;;;;;;;;;;;;;;7368669;19;859;-64
2023/05/08 09:25:44;;;;;;;;;;;;;;;;;;7366955;19;1192;-65
2023/05/08 09:28:12;;;;;;;;;;;;;;;;;;7367071;19;812;-64
2023/05/08 09:30:40;;;;;;;;;;;;;;;;;;7365500;19;1853;-63
2023/05/08 09:33:08;;;;;;;;;;;;;;;;;;7368543;19;766;-64
2023/05/08 09:35:36;;;;;;;;;;;;;;;;;;7366037;19;1332;-65
2023/05/08 09:38:05;;;;;;;;;;;;;;;;;;7367288;19;869;-65
2023/05/08 09:40:33;;;;;;;;;;;;;;;;;;7367164;19;805;-64
2023/05/08 09:43:01;;;;;;;;;;;;;;;;;;7367665;19;829;-64
2023/05/08 09:45:29;;;;;;;;;;;;;;;;;;7365697;19;1281;-65
2023/05/08 09:47:58;;;;;;;;;;;;;;;;;;7367223;19;806;-64
2023/05/08 09:50:26;;;;;;;;;;;;;;;;;;7364959;19;1837;-64
2023/05/08 09:52:54;;;;;;;;;;;;;;;;;;7367861;19;892;-65
2023/05/08 09:55:23;;;;;;;;;;;;;;;;;;7365362;19;1846;-62
2023/05/08 09:57:51;;;;;;;;;;;;;;;;;;7367182;19;885;-63
2023/05/08 10:00:19;;;;;;;;;;;;;;;;;;7368055;19;813;-63
2023/05/08 10:02:47;;;;;;;;;;;;;;;;;;7365176;19;802;-63
2023/05/08 10:05:15;;;;;;;;;;;;;;;;;;7364513;19;1350;-65
2023/05/08 10:07:43;;;;;;;;;;;;;;;;;;7365179;19;878;-65
2023/05/08 10:10:12;;;;;;;;;;;;;;;;;;7367596;19;1846;-65
2023/05/08 10:12:41;;;;;;;;;;;;;;;;;;7362984;19;768;-62
2023/05/08 10:15:09;;;;;;;;;;;;;;;;;;7364386;19;1262;-64
2023/05/08 10:17:37;;;;;;;;;;;;;;;;;;7366882;19;811;-64
2023/05/08 10:20:05;;;;;;;;;;;;;;;;;;7367592;19;1727;-64
2023/05/08 10:22:33;;;;;;;;;;;;;;;;;;7368963;19;1768;-64
2023/05/08 10:25:02;;;;;;;;;;;;;;;;;;7368286;19;1695;-63
2023/05/08 10:27:30;;;;;;;;;;;;;;;;;;7369182;19;1762;-64
2023/05/08 10:29:58;;;;;;;;;;;;;;;;;;7368864;19;1885;-63
2023/05/08 10:32:27;;;;;;;;;;;;;;;;;;7368196;19;1239;-63
2023/05/08 10:34:55;;;;;;;;;;;;;;;;;;7363477;19;1242;-63
2023/05/08 10:37:23;;;;;;;;;;;;;;;;;;7366262;19;893;-63
2023/05/08 10:39:51;;;;;;;;;;;;;;;;;;7365354;19;870;-63
2023/05/08 10:42:19;;;;;;;;;;;;;;;;;;7366659;19;1613;-64
2023/05/08 10:44:48;;;;;;;;;;;;;;;;;;7369200;19;2190;-63
2023/05/08 10:47:16;;;;;;;;;;;;;;;;;;7369020;19;1793;-65
2023/05/08 10:49:44;;;;;;;;;;;;;;;;;;7364396;19;1843;-63
2023/05/08 10:52:12;;;;;;;;;;;;;;;;;;7369208;19;1808;-63
2023/05/08 10:54:41;;;;;;;;;;;;;;;;;;7363872;19;1272;-63
2023/05/08 10:57:09;;;;;;;;;;;;;;;;;;7368451;19;1777;-64
2023/05/08 10:59:37;;;;;;;;;;;;;;;;;;7367559;19;1868;-64
2023/05/08 11:02:05;;;;;;;;;;;;;;;;;;7364805;19;854;-65
2023/05/08 11:04:33;;;;;;;;;;;;;;;;;;7364136;19;1275;-60
2023/05/08 11:07:03;;;;;;;;;;;;;;;;;;7364950;19;813;-64
2023/05/08 11:09:31;;;;;;;;;;;;;;;;;;7364023;19;1826;-64
2023/05/08 11:11:59;;;;;;;;;;;;;;;;;;7367992;19;1751;-62
2023/05/08 11:14:27;;;;;;;;;;;;;;;;;;7369419;19;1907;-63
2023/05/08 11:16:55;;;;;;;;;;;;;;;;;;7374011;19;1810;-64
2023/05/08 11:19:23;;;;;;;;;;;;;;;;;;7370366;19;957;-63
2023/05/08 11:21:52;;;;;;;;;;;;;;;;;;7371981;19;809;-62
2023/05/08 11:24:21;;;;;;;;;;;;;;;;;;7370882;19;1278;-62
2023/05/08 11:26:49;;;;;;;;;;;;;;;;;;7371795;19;850;-62
2023/05/08 11:29:17;;;;;;;;;;;;;;;;;;7372722;19;1841;-62
2023/05/08 11:31:45;;;;;;;;;;;;;;;;;;7371188;19;810;-63
2023/05/08 11:34:13;;;;;;;;;;;;;;;;;;7370915;19;1305;-63
2023/05/08 11:36:41;;;;;;;;;;;;;;;;;;7371664;19;854;-62
2023/05/08 11:39:11;;;;;;;;;;;;;;;;;;7371223;19;883;-63
2023/05/08 11:41:39;;;;;;;;;;;;;;;;;;7371707;19;878;-64
2023/05/08 11:44:08;;;;;;;;;;;;;;;;;;7375033;19;1611;-66
2023/05/08 11:46:36;;;;;;;;;;;;;;;;;;7371610;19;712;-66
2023/05/08 11:49:05;;;;;;;;;;;;;;;;;;7371007;19;853;-66
2023/05/08 11:51:34;;;;;;;;;;;;;;;;;;7370018;19;1846;-66
2023/05/08 11:54:02;;;;;;;;;;;;;;;;;;7370918;19;1284;-65
2023/05/08 11:56:30;;;;;;;;;;;;;;;;;;7371221;19;1836;-65
2023/05/08 11:58:58;;;;;;;;;;;;;;;;;;7368444;19;1176;-65
2023/05/08 12:01:36;;;;;;;;;;;;;;;;;;7373206;19;869;-65
2023/05/08 12:04:07;;;;;;;;;;;;;;;;;;7372647;19;1352;-65
2023/05/08 12:06:36;;;;;;;;;;;;;;;;;;7375836;19;1713;-65
2023/05/08 12:09:06;;;;;;;;;;;;;;;;;;7372843;19;921;-65
2023/05/08 12:11:34;;;;;;;;;;;;;;;;;;7372503;19;1842;-64
2023/05/08 12:14:03;;;;;;;;;;;;;;;;;;7370418;19;1354;-64
2023/05/08 12:16:31;;;;;;;;;;;;;;;;;;7370409;19;800;-64
2023/05/08 12:18:59;;;;;;;;;;;;;;;;;;7369222;19;1911;-64
2023/05/08 12:21:27;;;;;;;;;;;;;;;;;;7369269;19;802;-64
2023/05/08 12:23:55;;;;;;;;;;;;;;;;;;7369934;19;1352;-63
2023/05/08 12:26:23;;;;;;;;;;;;;;;;;;7368197;19;781;-63
2023/05/08 12:28:52;;;;;;;;;;;;;;;;;;7372216;19;1798;-63
2023/05/08 12:31:20;;;;;;;;;;;;;;;;;;7370144;19;1849;-63
2023/05/08 12:33:48;;;;;;;;;;;;;;;;;;7368833;19;1357;-60
2023/05/08 12:36:16;;;;;;;;;;;;;;;;;;7368559;19;862;-62
2023/05/08 12:38:44;;;;;;;;;;;;;;;;;;7368641;19;792;-62
2023/05/08 12:41:12;;;;;;;;;;;;;;;;;;7369839;19;1776;-60
2023/05/08 12:43:40;;;;;;;;;;;;;;;;;;7368767;19;1335;-62
2023/05/08 12:46:08;;;;;;;;;;;;;;;;;;7372944;19;1645;-62
2023/05/08 12:48:37;;;;;;;;;;;;;;;;;;7368363;19;1002;-59
2023/05/08 12:51:06;;;;;;;;;;;;;;;;;;7367717;19;1841;-59
2023/05/08 12:53:34;;;;;;;;;;;;;;;;;;7368595;19;852;-61
2023/05/08 12:56:02;;;;;;;;;;;;;;;;;;7366547;19;1230;-60
2023/05/08 12:58:30;;;;;;;;;;;;;;;;;;7369417;19;1758;-59
2023/05/08 13:00:59;;;;;;;;;;;;;;;;;;7368299;19;894;-61
2023/05/08 13:03:27;;;;;;;;;;;;;;;;;;7367471;19;790;-59
2023/05/08 13:05:55;;;;;;;;;;;;;;;;;;7365051;19;1287;-60
2023/05/08 13:08:23;;;;;;;;;;;;;;;;;;7368623;19;1479;-61
2023/05/08 13:10:51;;;;;;;;;;;;;;;;;;7367923;19;1872;-59
2023/05/08 13:13:19;;;;;;;;;;;;;;;;;;7371220;19;953;-61
2023/05/08 13:15:47;;;;;;;;;;;;;;;;;;7365537;19;1280;-62
2023/05/08 13:18:16;;;;;;;;;;;;;;;;;;7366863;19;843;-60
2023/05/08 13:20:44;;;;;;;;;;;;;;;;;;7367448;19;935;-60
2023/05/08 13:23:12;;;;;;;;;;;;;;;;;;7368377;19;778;-60
2023/05/08 13:25:40;;;;;;;;;;;;;;;;;;7366368;19;1805;-62
2023/05/08 13:28:08;;;;;;;;;;;;;;;;;;7366815;19;829;-60
2023/05/08 13:30:36;;;;;;;;;;;;;;;;;;7365692;19;1871;-59
2023/05/08 13:33:05;;;;;;;;;;;;;;;;;;7367234;19;861;-60
2023/05/08 13:35:33;;;;;;;;;;;;;;;;;;7364215;19;1283;-61
2023/05/08 13:38:01;;;;;;;;;;;;;;;;;;7367589;19;2117;-60
2023/05/08 13:40:29;;;;;;;;;;;;;;;;;;7370967;19;1785;-61
2023/05/08 13:42:57;;;;;;;;;;;;;;;;;;7369131;19;1814;-60
2023/05/08 13:45:25;;;;;;;;;;;;;;;;;;7364493;19;1278;-59
2023/05/08 13:47:53;;;;;;;;;;;;;;;;;;7365874;19;783;-62
2023/05/08 13:50:22;;;;;;;;;;;;;;;;;;7369498;19;1863;-61
2023/05/08 13:52:50;;;;;;;;;;;;;;;;;;7367165;19;790;-62
2023/05/08 13:55:20;;;;;;;;;;;;;;;;;;7366567;19;1786;-63
2023/05/08 13:57:49;;;;;;;;;;;;;;;;;;7369869;19;2032;-61
2023/05/08 14:00:17;;;;;;;;;;;;;;;;;;7366918;19;813;-62
2023/05/08 14:02:45;;;;;;;;;;;;;;;;;;7366608;19;830;-63
2023/05/08 14:05:13;;;;;;;;;;;;;;;;;;7364728;19;1283;-63
2023/05/08 14:07:42;;;;;;;;;;;;;;;;;;7368232;19;1777;-63
2023/05/08 14:10:10;;;;;;;;;;;;;;;;;;7366378;19;1852;-65
2023/05/08 14:12:39;;;;;;;;;;;;;;;;;;7365666;19;835;-64
2023/05/08 14:15:07;;;;;;;;;;;;;;;;;;7364939;19;1274;-64
2023/05/08 14:17:35;;;;;;;;;;;;;;;;;;7368679;19;1696;-65
2023/05/08 14:20:03;;;;;;;;;;;;;;;;;;7366302;19;922;-65
2023/05/08 14:22:32;;;;;;;;;;;;;;;;;;7367084;19;849;-62
2023/05/08 14:25:00;;;;;;;;;;;;;;;;;;7365629;19;1807;-64
2023/05/08 14:27:28;;;;;;;;;;;;;;;;;;7368503;19;1679;-64
2023/05/08 14:29:56;;;;;;;;;;;;;;;;;;7365402;19;854;-65
2023/05/08 14:32:24;;;;;;;;;;;;;;;;;;7363432;19;1865;-65
2023/05/08 14:34:53;;;;;;;;;;;;;;;;;;7364360;19;1238;-65
2023/05/08 14:37:21;;;;;;;;;;;;;;;;;;7368112;19;1778;-65
2023/05/08 14:39:52;;;;;;;;;;;;;;;;;;7367856;19;1774;-65
2023/05/08 14:42:21;;;;;;;;;;;;;;;;;;7367168;19;764;-65
2023/05/08 14:44:49;;;;;;;;;;;;;;;;;;7364944;19;1337;-65
2023/05/08 14:47:17;;;;;;;;;;;;;;;;;;7369685;19;1806;-66
2023/05/08 14:49:45;;;;;;;;;;;;;;;;;;7365581;19;793;-65
2023/05/08 14:52:13;;;;;;;;;;;;;;;;;;7362993;19;1892;-66
2023/05/08 14:54:41;;;;;;;;;;;;;;;;;;7364178;19;1291;-65
2023/05/08 14:57:10;;;;;;;;;;;;;;;;;;7365807;19;779;-66
2023/05/08 14:59:38;;;;;;;;;;;;;;;;;;7364447;19;806;-66
2023/05/08 15:02:06;;;;;;;;;;;;;;;;;;7365366;19;783;-66
2023/05/08 15:04:39;;;;;;;;;;;;;;;;;;7363951;19;1358;-65
2023/05/08 15:07:07;;;;;;;;;;;;;;;;;;7364641;19;2042;-66
2023/05/08 15:09:35;;;;;;;;;;;;;;;;;;7367942;19;1799;-66
2023/05/08 15:12:04;;;;;;;;;;;;;;;;;;7362660;19;1861;-66
2023/05/08 15:14:32;;;;;;;;;;;;;;;;;;7363927;19;1271;-66
2023/05/08 15:17:00;;;;;;;;;;;;;;;;;;7365135;19;859;-66
2023/05/08 15:19:28;;;;;;;;;;;;;;;;;;7366894;19;1796;-65
2023/05/08 15:21:56;;;;;;;;;;;;;;;;;;7364482;19;854;-65
2023/05/08 15:24:25;;;;;;;;;;;;;;;;;;7363588;19;1271;-66
2023/05/08 15:26:53;;;;;;;;;;;;;;;;;;7364728;19;943;-66
2023/05/08 15:29:21;;;;;;;;;;;;;;;;;;7365516;19;1672;-65
2023/05/08 15:31:50;;;;;;;;;;;;;;;;;;7361742;19;1841;-65
2023/05/08 15:34:18;;;;;;;;;;;;;;;;;;7363412;19;1337;-65
2023/05/08 15:36:46;;;;;;;;;;;;;;;;;;7366637;19;1792;-65
2023/05/08 15:39:14;;;;;;;;;;;;;;;;;;7364635;19;2068;-65
2023/05/08 15:41:42;;;;;;;;;;;;;;;;;;7363821;19;854;-65
2023/05/08 15:44:12;;;;;;;;;;;;;;;;;;7362595;19;1288;-65
2023/05/08 15:46:40;;;;;;;;;;;;;;;;;;7363979;19;857;-65
2023/05/08 15:49:08;;;;;;;;;;;;;;;;;;7364475;19;2083;-65
2023/05/08 15:51:36;;;;;;;;;;;;;;;;;;7363821;19;1842;-65
2023/05/08 15:54:04;;;;;;;;;;;;;;;;;;7363971;19;1352;-65
2023/05/08 15:56:32;;;;;;;;;;;;;;;;;;7364848;19;1751;-64
2023/05/08 15:59:00;;;;;;;;;;;;;;;;;;7365863;19;1803;-65
2023/05/08 16:01:29;;;;;;;;;;;;;;;;;;7369754;19;743;-65
2023/05/08 16:03:57;;;;;;;;;;;;;;;;;;7373102;19;1824;-65
2023/05/08 16:06:25;;;;;;;;;;;;;;;;;;7371722;19;1850;-65
2023/05/08 16:08:53;;;;;;;;;;;;;;;;;;7373137;19;2142;-65
2023/05/08 16:11:21;;;;;;;;;;;;;;;;;;7372678;19;1846;-65
2023/05/08 16:13:49;;;;;;;;;;;;;;;;;;7369967;19;1329;-64
2023/05/08 16:16:17;;;;;;;;;;;;;;;;;;7371624;19;1807;-64
2023/05/08 16:18:46;;;;;;;;;;;;;;;;;;7368399;19;872;-64
2023/05/08 16:21:14;;;;;;;;;;;;;;;;;;7367828;19;698;-65
2023/05/08 16:23:42;;;;;;;;;;;;;;;;;;7369589;19;1338;-64
2023/05/08 16:26:10;;;;;;;;;;;;;;;;;;7370541;19;1603;-64
2023/05/08 16:28:38;;;;;;;;;;;;;;;;;;7368560;19;844;-64
2023/05/08 16:31:07;;;;;;;;;;;;;;;;;;7368057;19;1869;-64
2023/05/08 16:33:35;;;;;;;;;;;;;;;;;;7369522;19;1831;-64
2023/05/08 16:36:03;;;;;;;;;;;;;;;;;;7371043;19;1847;-64
2023/05/08 16:38:32;;;;;;;;;;;;;;;;;;7372224;19;1774;-64
2023/05/08 16:41:00;;;;;;;;;;;;;;;;;;7368848;19;781;-64
2023/05/08 16:43:28;;;;;;;;;;;;;;;;;;7369250;19;1583;-63
2023/05/08 16:45:56;;;;;;;;;;;;;;;;;;7366161;19;1267;-63
2023/05/08 16:48:24;;;;;;;;;;;;;;;;;;7367471;19;775;-64
2023/05/08 16:50:52;;;;;;;;;;;;;;;;;;7368504;19;1845;-63
2023/05/08 16:53:20;;;;;;;;;;;;;;;;;;7369088;19;2042;-62
2023/05/08 16:55:48;;;;;;;;;;;;;;;;;;7365582;19;1333;-63
2023/05/08 16:58:17;;;;;;;;;;;;;;;;;;7368219;19;874;-63
2023/05/08 17:00:45;;;;;;;;;;;;;;;;;;7369114;19;865;-63
2023/05/08 17:03:13;;;;;;;;;;;;;;;;;;7370282;19;1823;-63
2023/05/08 17:05:41;;;;;;;;;;;;;;;;;;7365950;19;1319;-64
2023/05/08 17:08:10;;;;;;;;;;;;;;;;;;7367370;19;857;-63
2023/05/08 17:10:38;;;;;;;;;;;;;;;;;;7368177;19;861;-61
2023/05/08 17:13:06;;;;;;;;;;;;;;;;;;7368392;19;1842;-63
2023/05/08 17:15:34;;;;;;;;;;;;;;;;;;7365989;19;1225;-63
2023/05/08 17:18:02;;;;;;;;;;;;;;;;;;7365791;19;802;-62